Time;durP1;ratioP1;P1;durP2;ratioP2;P2;SDS_P1;SDS_P2;PMS_P1;PMS_P2;Temp;Humidity;BMP_temperature;BMP_pressure;BME280_temperature;BME280_humidity;BME280_pressure;Samples;Min_cycle;Max_cycle;Signal;HPM_P1;HPM_P2
2023/09/17 00:01:13;;;;;;;3.90;2.60;;;;;;;;;;5816107;28;20047;-74
2023/09/17 00:04:06;;;;;;;7.43;2.55;;;;;;;;;;5809974;28;20058;-74
2023/09/17 00:06:58;;;;;;;4.40;2.40;;;;;;;;;;5818583;28;20046;-73
2023/09/17 00:09:49;;;;;;;4.00;2.78;;;;;;;;;;5819750;28;20058;-72
2023/09/17 00:12:40;;;;;;;3.35;2.38;;;;;;;;;;5819471;28;20510;-74
2023/09/17 00:15:31;;;;;;;5.47;2.45;;;;;;;;;;5818358;28;20069;-73
2023/09/17 00:18:21;;;;;;;4.85;2.88;;;;;;;;;;5818274;28;20149;-73
2023/09/17 00:21:12;;;;;;;1.60;1.33;;;;;;;;;;5818146;28;20478;-73
2023/09/17 00:24:03;;;;;;;3.78;2.58;;;;;;;;;;5819672;28;20046;-72
2023/09/17 00:26:54;;;;;;;11.50;3.20;;;;;;;;;;5819812;28;20446;-72
2023/09/17 00:29:45;;;;;;;4.93;3.10;;;;;;;;;;5819259;28;20050;-74
2023/09/17 00:32:35;;;;;;;6.22;3.13;;;;;;;;;;5819211;28;20054;-72
2023/09/17 00:35:26;;;;;;;6.25;3.17;;;;;;;;;;5801679;28;20137;-73
2023/09/17 00:38:17;;;;;;;5.05;2.45;;;;;;;;;;5834025;28;20406;-73
2023/09/17 00:41:08;;;;;;;3.60;2.60;;;;;;;;;;5818839;28;20386;-73
2023/09/17 00:43:58;;;;;;;16.23;3.05;;;;;;;;;;5819674;28;20042;-73
2023/09/17 00:46:50;;;;;;;4.80;3.13;;;;;;;;;;5817871;28;20073;-72
2023/09/17 00:49:42;;;;;;;4.18;2.95;;;;;;;;;;5819041;28;20046;-73
2023/09/17 00:52:35;;;;;;;3.60;1.85;;;;;;;;;;5817464;28;20104;-72
2023/09/17 00:55:29;;;;;;;4.45;2.63;;;;;;;;;;5819053;28;20402;-73
2023/09/17 00:58:21;;;;;;;3.63;2.83;;;;;;;;;;5833674;28;20046;-73
2023/09/17 01:01:12;;;;;;;3.85;2.33;;;;;;;;;;5817232;28;20057;-72
2023/09/17 01:04:03;;;;;;;3.80;2.17;;;;;;;;;;5819027;28;20050;-72
2023/09/17 01:06:55;;;;;;;3.25;2.63;;;;;;;;;;5810985;28;20860;-72
2023/09/17 01:09:47;;;;;;;6.90;3.17;;;;;;;;;;5818725;28;20045;-74
2023/09/17 01:12:38;;;;;;;6.13;3.63;;;;;;;;;;5818373;28;20046;-72
2023/09/17 01:15:29;;;;;;;5.65;2.63;;;;;;;;;;5818531;28;20074;-73
2023/09/17 01:18:21;;;;;;;3.80;2.22;;;;;;;;;;5818454;28;20046;-74
2023/09/17 01:21:32;;;;;;;5.88;3.17;;;;;;;;;;5818254;28;20402;-72
2023/09/17 01:24:41;;;;;;;4.00;2.40;;;;;;;;;;5818297;28;20042;-73
2023/09/17 01:27:38;;;;;;;12.80;2.72;;;;;;;;;;5818405;28;20050;-72
2023/09/17 01:30:29;;;;;;;3.55;2.50;;;;;;;;;;5816712;28;20502;-74
2023/09/17 01:33:20;;;;;;;2.95;2.22;;;;;;;;;;5817988;28;20050;-72
2023/09/17 01:36:33;;;;;;;3.40;2.10;;;;;;;;;;5818201;28;20501;-73
2023/09/17 01:39:27;;;;;;;4.25;2.78;;;;;;;;;;5817017;28;20082;-74
2023/09/17 01:42:19;;;;;;;3.95;2.50;;;;;;;;;;5816885;28;20046;-73
2023/09/17 01:45:14;;;;;;;2.72;1.80;;;;;;;;;;5818167;28;20054;-74
2023/09/17 01:48:05;;;;;;;4.55;2.55;;;;;;;;;;5818125;28;20046;-74
2023/09/17 01:50:57;;;;;;;4.20;2.75;;;;;;;;;;5817276;28;20042;-72
2023/09/17 01:53:48;;;;;;;3.95;2.92;;;;;;;;;;5816824;28;20038;-72
2023/09/17 01:56:39;;;;;;;5.13;2.80;;;;;;;;;;5816853;28;20549;-72
2023/09/17 01:59:30;;;;;;;3.30;1.90;;;;;;;;;;5817999;28;20069;-74
2023/09/17 02:02:21;;;;;;;5.28;2.47;;;;;;;;;;5818082;28;20432;-73
2023/09/17 02:05:16;;;;;;;3.25;2.38;;;;;;;;;;5817868;28;20050;-72
2023/09/17 02:08:07;;;;;;;2.92;1.90;;;;;;;;;;5817901;28;20054;-72
2023/09/17 02:10:57;;;;;;;3.80;2.17;;;;;;;;;;5818318;28;20042;-73
2023/09/17 02:13:48;;;;;;;5.20;2.60;;;;;;;;;;5817994;28;20498;-75
2023/09/17 02:16:39;;;;;;;2.85;2.17;;;;;;;;;;5817840;28;20544;-73
2023/09/17 02:19:30;;;;;;;3.40;2.33;;;;;;;;;;5818032;28;20161;-73
2023/09/17 02:22:21;;;;;;;4.53;2.33;;;;;;;;;;5817891;28;20046;-72
2023/09/17 02:25:12;;;;;;;3.42;1.73;;;;;;;;;;5816388;28;20050;-74
2023/09/17 02:28:03;;;;;;;4.78;2.47;;;;;;;;;;5817795;28;20444;-74
2023/09/17 02:30:54;;;;;;;2.97;2.47;;;;;;;;;;5818126;28;20046;-74
2023/09/17 02:33:45;;;;;;;3.40;2.72;;;;;;;;;;5817499;28;20061;-73
2023/09/17 02:36:36;;;;;;;3.33;1.88;;;;;;;;;;5817369;28;20054;-74
2023/09/17 02:39:27;;;;;;;5.22;2.65;;;;;;;;;;5817781;28;20047;-71
2023/09/17 02:42:18;;;;;;;3.05;2.25;;;;;;;;;;5820852;28;20398;-74
2023/09/17 02:45:09;;;;;;;3.35;2.60;;;;;;;;;;5821460;28;20057;-74
2023/09/17 02:48:00;;;;;;;2.10;1.90;;;;;;;;;;5836834;28;20049;-73
2023/09/17 02:50:51;;;;;;;4.78;3.08;;;;;;;;;;5804419;28;20540;-73
2023/09/17 02:53:42;;;;;;;4.30;2.70;;;;;;;;;;5821336;28;20413;-72
2023/09/17 02:56:33;;;;;;;4.53;2.17;;;;;;;;;;5821235;28;20053;-74
2023/09/17 02:59:24;;;;;;;2.40;1.90;;;;;;;;;;5821176;28;20042;-74
2023/09/17 03:02:15;;;;;;;3.22;2.67;;;;;;;;;;5821097;28;20065;-73
2023/09/17 03:05:09;;;;;;;2.70;1.73;;;;;;;;;;5819720;28;20046;-75
2023/09/17 03:08:02;;;;;;;3.22;2.28;;;;;;;;;;5821110;28;20070;-72
2023/09/17 03:10:59;;;;;;;3.40;2.10;;;;;;;;;;5821341;28;20050;-74
2023/09/17 03:13:50;;;;;;;4.90;2.92;;;;;;;;;;5821130;28;20122;-73
2023/09/17 03:16:41;;;;;;;2.42;1.95;;;;;;;;;;5820833;28;20054;-73
2023/09/17 03:19:32;;;;;;;3.60;2.42;;;;;;;;;;5820900;28;20182;-73
2023/09/17 03:22:23;;;;;;;2.88;2.42;;;;;;;;;;5819643;28;20049;-73
2023/09/17 03:25:14;;;;;;;3.85;2.38;;;;;;;;;;5819565;28;20482;-74
2023/09/17 03:28:05;;;;;;;5.53;2.72;;;;;;;;;;5819497;28;20128;-75
2023/09/17 03:30:56;;;;;;;5.95;3.38;;;;;;;;;;5821169;28;20054;-74
2023/09/17 03:33:46;;;;;;;6.20;2.83;;;;;;;;;;5820648;28;20046;-73
2023/09/17 03:36:37;;;;;;;7.03;4.05;;;;;;;;;;5820146;28;20054;-73
2023/09/17 03:39:28;;;;;;;2.00;1.83;;;;;;;;;;5819301;28;20112;-73
2023/09/17 03:42:19;;;;;;;9.15;3.42;;;;;;;;;;5820187;28;20046;-72
2023/09/17 03:45:12;;;;;;;3.05;2.58;;;;;;;;;;5819038;28;20050;-72
2023/09/17 03:48:04;;;;;;;3.38;2.17;;;;;;;;;;5819049;28;20426;-74
2023/09/17 03:50:55;;;;;;;2.08;1.88;;;;;;;;;;5819226;28;20132;-72
2023/09/17 03:53:46;;;;;;;7.20;3.15;;;;;;;;;;5820219;28;20359;-72
2023/09/17 03:56:37;;;;;;;2.30;1.92;;;;;;;;;;5818793;28;20478;-73
2023/09/17 03:59:28;;;;;;;6.45;3.03;;;;;;;;;;5819945;28;20125;-73
2023/09/17 04:02:20;;;;;;;3.42;2.13;;;;;;;;;;5820032;28;20046;-72
2023/09/17 04:05:16;;;;;;;2.63;2.30;;;;;;;;;;5819864;28;20054;-73
2023/09/17 04:08:07;;;;;;;3.92;2.60;;;;;;;;;;5819741;28;20058;-72
2023/09/17 04:10:58;;;;;;;4.57;3.00;;;;;;;;;;5820403;28;20049;-73
2023/09/17 04:13:48;;;;;;;2.72;2.20;;;;;;;;;;5819800;28;20269;-73
2023/09/17 04:16:39;;;;;;;3.25;2.33;;;;;;;;;;5819692;28;20054;-73
2023/09/17 04:19:32;;;;;;;3.05;2.55;;;;;;;;;;5819774;28;20074;-74
2023/09/17 04:22:22;;;;;;;2.78;2.25;;;;;;;;;;5819357;28;20057;-73
2023/09/17 04:25:13;;;;;;;3.50;2.55;;;;;;;;;;5818389;28;20074;-73
2023/09/17 04:28:05;;;;;;;3.10;2.75;;;;;;;;;;5819605;28;20054;-73
2023/09/17 04:30:56;;;;;;;3.78;2.30;;;;;;;;;;5818717;28;20486;-73
2023/09/17 04:33:46;;;;;;;4.93;2.72;;;;;;;;;;5834244;28;20417;-72
2023/09/17 04:36:37;;;;;;;3.97;2.78;;;;;;;;;;5819151;28;20046;-72
2023/09/17 04:39:28;;;;;;;4.28;3.13;;;;;;;;;;5819160;28;20126;-72
2023/09/17 04:42:19;;;;;;;3.05;2.15;;;;;;;;;;5819078;28;20058;-72
2023/09/17 04:45:10;;;;;;;14.02;3.30;;;;;;;;;;5819071;28;20601;-72
2023/09/17 04:48:01;;;;;;;5.30;2.65;;;;;;;;;;5817705;28;20046;-72
2023/09/17 04:50:52;;;;;;;6.90;2.75;;;;;;;;;;5819447;28;20409;-74
2023/09/17 04:53:43;;;;;;;2.40;1.90;;;;;;;;;;5818715;28;20046;-74
2023/09/17 04:56:35;;;;;;;4.60;2.67;;;;;;;;;;5819019;28;20050;-72
2023/09/17 04:59:27;;;;;;;3.63;2.53;;;;;;;;;;5818766;28;20137;-72
2023/09/17 05:02:18;;;;;;;6.18;3.03;;;;;;;;;;5818802;28;20484;-73
2023/09/17 05:05:10;;;;;;;5.60;3.20;;;;;;;;;;5817967;28;20508;-73
2023/09/17 05:08:01;;;;;;;1.65;1.55;;;;;;;;;;5818770;28;20133;-75
2023/09/17 05:10:52;;;;;;;4.55;2.10;;;;;;;;;;5819091;28;20053;-74
2023/09/17 05:13:43;;;;;;;2.92;1.95;;;;;;;;;;5818762;28;20072;-74
2023/09/17 05:16:35;;;;;;;4.07;2.83;;;;;;;;;;5817315;28;20051;-74
2023/09/17 05:19:26;;;;;;;4.57;2.05;;;;;;;;;;5818555;28;20050;-72
2023/09/17 05:22:17;;;;;;;7.32;1.98;;;;;;;;;;5818531;28;20050;-72
2023/09/17 05:25:08;;;;;;;6.25;3.40;;;;;;;;;;5818250;28;20137;-74
2023/09/17 05:27:59;;;;;;;2.85;2.20;;;;;;;;;;5817580;28;20042;-73
2023/09/17 05:30:50;;;;;;;4.03;2.40;;;;;;;;;;5833424;28;20045;-73
2023/09/17 05:33:40;;;;;;;3.42;2.63;;;;;;;;;;5818446;28;20046;-73
2023/09/17 05:36:31;;;;;;;1.80;1.70;;;;;;;;;;5818238;28;20383;-73
2023/09/17 05:39:22;;;;;;;4.53;2.45;;;;;;;;;;5833121;28;20050;-73
2023/09/17 05:42:13;;;;;;;1.92;1.67;;;;;;;;;;5818290;28;20049;-74
2023/09/17 05:45:04;;;;;;;3.20;2.90;;;;;;;;;;5818152;28;20058;-74
2023/09/17 05:47:55;;;;;;;3.97;2.60;;;;;;;;;;5818748;28;20050;-74
2023/09/17 05:50:46;;;;;;;4.20;2.65;;;;;;;;;;5818153;28;20054;-74
2023/09/17 05:53:39;;;;;;;3.90;2.20;;;;;;;;;;5816814;28;20189;-74
2023/09/17 05:56:30;;;;;;;5.03;2.72;;;;;;;;;;5816910;28;20073;-74
2023/09/17 05:59:21;;;;;;;4.28;2.05;;;;;;;;;;5818097;28;20062;-73
2023/09/17 06:02:12;;;;;;;3.80;2.13;;;;;;;;;;5818031;28;20046;-73
2023/09/17 06:05:03;;;;;;;3.47;2.40;;;;;;;;;;5818136;28;20076;-73
2023/09/17 06:07:54;;;;;;;2.75;2.13;;;;;;;;;;5818495;28;20042;-74
2023/09/17 06:10:45;;;;;;;3.92;2.75;;;;;;;;;;5817954;28;20412;-74
2023/09/17 06:13:36;;;;;;;3.28;2.30;;;;;;;;;;5816444;28;20065;-75
2023/09/17 06:16:27;;;;;;;4.13;2.70;;;;;;;;;;5821586;28;20073;-74
2023/09/17 06:19:33;;;;;;;2.70;1.83;;;;;;;;;;5821831;28;20497;-74
2023/09/17 06:22:23;;;;;;;3.33;1.42;;;;;;;;;;5822223;28;20062;-74
2023/09/17 06:25:15;;;;;;;3.10;2.22;;;;;;;;;;5822186;28;20050;-73
2023/09/17 06:28:06;;;;;;;3.08;2.05;;;;;;;;;;5821868;28;20516;-74
2023/09/17 06:30:57;;;;;;;3.22;2.05;;;;;;;;;;5822445;28;20065;-73
2023/09/17 06:33:48;;;;;;;1.80;1.65;;;;;;;;;;5820564;28;20064;-73
2023/09/17 06:36:39;;;;;;;1.73;1.30;;;;;;;;;;5821624;28;20060;-74
2023/09/17 06:39:30;;;;;;;3.20;1.85;;;;;;;;;;5820404;28;20114;-73
2023/09/17 06:42:21;;;;;;;4.05;1.58;;;;;;;;;;5821416;28;20058;-73
2023/09/17 06:45:11;;;;;;;1.73;1.48;;;;;;;;;;5821664;28;20046;-74
2023/09/17 06:48:02;;;;;;;1.75;1.58;;;;;;;;;;5821634;28;20050;-76
2023/09/17 06:50:53;;;;;;;1.63;1.45;;;;;;;;;;5821775;28;20048;-74
2023/09/17 06:53:44;;;;;;;4.10;1.83;;;;;;;;;;5821393;28;20046;-75
2023/09/17 06:56:35;;;;;;;3.10;1.33;;;;;;;;;;5821167;28;20053;-73
2023/09/17 06:59:26;;;;;;;3.05;1.50;;;;;;;;;;5821216;28;20042;-73
2023/09/17 07:02:17;;;;;;;2.60;1.33;;;;;;;;;;5821014;28;20061;-74
2023/09/17 07:05:08;;;;;;;2.13;1.65;;;;;;;;;;5821267;28;20418;-73
2023/09/17 07:07:59;;;;;;;1.17;1.08;;;;;;;;;;5804284;28;20490;-74
2023/09/17 07:10:51;;;;;;;0.82;0.82;;;;;;;;;;5821101;28;20172;-74
2023/09/17 07:13:41;;;;;;;1.30;0.98;;;;;;;;;;5821252;28;20052;-75
2023/09/17 07:16:32;;;;;;;1.10;1.00;;;;;;;;;;5820919;28;20053;-74
2023/09/17 07:19:23;;;;;;;1.98;0.95;;;;;;;;;;5820743;28;20124;-74
2023/09/17 07:22:14;;;;;;;1.90;1.50;;;;;;;;;;5819438;28;20046;-75
2023/09/17 07:25:05;;;;;;;1.27;1.17;;;;;;;;;;5820693;28;20050;-74
2023/09/17 07:27:56;;;;;;;1.30;1.08;;;;;;;;;;5820469;28;20054;-75
2023/09/17 07:30:54;;;;;;;1.85;0.88;;;;;;;;;;5820357;28;20433;-75
2023/09/17 07:33:45;;;;;;;1.70;1.02;;;;;;;;;;5820559;28;20050;-73
2023/09/17 07:36:36;;;;;;;1.02;0.55;;;;;;;;;;5820376;28;20042;-74
2023/09/17 07:39:27;;;;;;;2.50;1.00;;;;;;;;;;5820489;28;20504;-74
2023/09/17 07:42:18;;;;;;;4.50;0.70;;;;;;;;;;5820628;28;20046;-73
2023/09/17 07:45:10;;;;;;;0.60;0.60;;;;;;;;;;5820639;28;20047;-74
2023/09/17 07:48:04;;;;;;;3.05;0.95;;;;;;;;;;5820549;28;20050;-75
2023/09/17 07:51:00;;;;;;;1.42;1.30;;;;;;;;;;5820611;28;20074;-75
2023/09/17 07:53:51;;;;;;;1.38;0.88;;;;;;;;;;5820240;28;20050;-74
2023/09/17 07:56:42;;;;;;;3.13;0.98;;;;;;;;;;5820050;28;20510;-73
2023/09/17 07:59:33;;;;;;;6.97;1.38;;;;;;;;;;5819998;28;20065;-74
2023/09/17 08:02:25;;;;;;;6.93;2.55;;;;;;;;;;5819897;28;20054;-74
2023/09/17 08:05:17;;;;;;;1.08;0.80;;;;;;;;;;5819778;28;20469;-74
2023/09/17 08:08:08;;;;;;;0.93;0.70;;;;;;;;;;5818527;28;20409;-74
2023/09/17 08:10:59;;;;;;;6.70;0.90;;;;;;;;;;5820060;28;20046;-72
2023/09/17 08:13:50;;;;;;;1.23;1.10;;;;;;;;;;5810420;28;20046;-73
2023/09/17 08:16:41;;;;;;;1.77;0.82;;;;;;;;;;5834606;28;20436;-73
2023/09/17 08:19:32;;;;;;;0.50;0.50;;;;;;;;;;5819593;28;20408;-73
2023/09/17 08:22:23;;;;;;;1.77;0.90;;;;;;;;;;5819513;28;20042;-73
2023/09/17 08:25:14;;;;;;;0.55;0.55;;;;;;;;;;5819273;28;20060;-74
2023/09/17 08:28:06;;;;;;;3.63;1.40;;;;;;;;;;5819362;28;20053;-73
2023/09/17 08:31:02;;;;;;;1.05;0.93;;;;;;;;;;5819415;28;20046;-74
2023/09/17 08:33:54;;;;;;;0.25;0.25;;;;;;;;;;5819692;28;20045;-74
2023/09/17 08:36:47;;;;;;;3.28;1.08;;;;;;;;;;5819186;28;20043;-74
2023/09/17 08:39:38;;;;;;;0.47;0.45;;;;;;;;;;5801015;28;20042;-75
2023/09/17 08:42:29;;;;;;;0.30;0.30;;;;;;;;;;5819099;28;20046;-75
2023/09/17 08:45:21;;;;;;;1.80;0.90;;;;;;;;;;5818961;28;20466;-74
2023/09/17 08:48:13;;;;;;;4.20;0.90;;;;;;;;;;5817527;28;20046;-73
2023/09/17 08:51:07;;;;;;;2.10;0.75;;;;;;;;;;5818811;28;20049;-75
2023/09/17 08:54:28;;;;;;;0.80;0.38;;;;;;;;;;5817776;28;20054;-73
2023/09/17 08:57:23;;;;;;;1.55;1.17;;;;;;;;;;5817123;28;20050;-74
2023/09/17 09:00:18;;;;;;;0.60;0.60;;;;;;;;;;5801474;28;20046;-73
2023/09/17 09:03:11;;;;;;;0.63;0.60;;;;;;;;;;5817389;28;20046;-74
2023/09/17 09:06:03;;;;;;;1.65;0.40;;;;;;;;;;5817402;28;20405;-75
2023/09/17 09:08:55;;;;;;;1.40;0.55;;;;;;;;;;5817822;28;20486;-74
2023/09/17 09:11:48;;;;;;;0.65;0.50;;;;;;;;;;5818628;28;20050;-75
2023/09/17 09:14:40;;;;;;;1.45;0.95;;;;;;;;;;5818189;28;20065;-73
2023/09/17 09:17:31;;;;;;;0.28;0.28;;;;;;;;;;5818492;28;20042;-74
2023/09/17 09:20:22;;;;;;;0.28;0.28;;;;;;;;;;5817144;28;20042;-74
2023/09/17 09:23:13;;;;;;;0.50;0.50;;;;;;;;;;5817196;28;20074;-73
2023/09/17 09:26:05;;;;;;;1.60;0.73;;;;;;;;;;5818177;28;20370;-73
2023/09/17 09:28:56;;;;;;;0.28;0.13;;;;;;;;;;5819085;28;20074;-75
2023/09/17 09:31:47;;;;;;;2.75;0.40;;;;;;;;;;5818217;28;20054;-75
2023/09/17 09:34:40;;;;;;;1.27;0.52;;;;;;;;;;5818197;28;20394;-73
2023/09/17 09:37:33;;;;;;;0.77;0.60;;;;;;;;;;5816702;28;20133;-74
2023/09/17 09:40:25;;;;;;;2.22;0.57;;;;;;;;;;5816548;28;20054;-74
2023/09/17 09:43:30;;;;;;;0.75;0.40;;;;;;;;;;5818077;28;20501;-74
2023/09/17 09:46:21;;;;;;;0.95;0.80;;;;;;;;;;5818133;28;20045;-74
2023/09/17 09:49:12;;;;;;;0.77;0.60;;;;;;;;;;5816949;28;20385;-74
2023/09/17 09:52:03;;;;;;;1.15;0.55;;;;;;;;;;5823034;28;20402;-75
2023/09/17 09:54:54;;;;;;;0.55;0.50;;;;;;;;;;5822895;28;20053;-75
2023/09/17 09:57:45;;;;;;;0.60;0.38;;;;;;;;;;5822369;28;20043;-74
2023/09/17 10:00:36;;;;;;;1.67;0.75;;;;;;;;;;5821425;28;20054;-74
2023/09/17 10:03:27;;;;;;;1.05;0.45;;;;;;;;;;5822642;28;20066;-75
2023/09/17 10:06:19;;;;;;;1.40;0.40;;;;;;;;;;5821025;28;20046;-74
2023/09/17 10:09:10;;;;;;;1.00;0.55;;;;;;;;;;5822382;28;20050;-74
2023/09/17 10:12:01;;;;;;;0.28;0.28;;;;;;;;;;5822217;28;20053;-74
2023/09/17 10:14:52;;;;;;;0.40;0.38;;;;;;;;;;5821144;28;20486;-74
2023/09/17 10:17:44;;;;;;;0.63;0.40;;;;;;;;;;5822017;28;20054;-74
2023/09/17 10:20:35;;;;;;;0.88;0.55;;;;;;;;;;5820771;28;20149;-74
2023/09/17 10:23:27;;;;;;;9.60;1.27;;;;;;;;;;5822061;28;20042;-75
2023/09/17 10:26:22;;;;;;;0.70;0.60;;;;;;;;;;5820398;28;20043;-74
2023/09/17 10:29:15;;;;;;;0.63;0.52;;;;;;;;;;5820745;28;20470;-75
2023/09/17 10:32:06;;;;;;;0.38;0.38;;;;;;;;;;5820483;28;20150;-74
2023/09/17 10:34:59;;;;;;;0.40;0.30;;;;;;;;;;5822319;28;20054;-74
2023/09/17 10:37:51;;;;;;;0.80;0.47;;;;;;;;;;5820407;28;20074;-75
2023/09/17 10:40:43;;;;;;;1.13;0.80;;;;;;;;;;5820459;28;20039;-75
2023/09/17 10:43:38;;;;;;;4.57;0.73;;;;;;;;;;5821813;28;20580;-74
2023/09/17 10:46:31;;;;;;;17.65;1.70;;;;;;;;;;5820023;28;20501;-74
2023/09/17 10:49:22;;;;;;;0.77;0.50;;;;;;;;;;5821368;28;20070;-74
2023/09/17 10:52:14;;;;;;;0.63;0.30;;;;;;;;;;5821177;28;20052;-74
2023/09/17 10:55:08;;;;;;;1.92;1.02;;;;;;;;;;5820217;28;20355;-75
2023/09/17 10:58:13;;;;;;;0.70;0.32;;;;;;;;;;5821776;28;20046;-76
2023/09/17 11:01:07;;;;;;;0.50;0.40;;;;;;;;;;5818556;28;20047;-74
2023/09/17 11:04:07;;;;;;;1.30;0.80;;;;;;;;;;5820499;28;20058;-75
2023/09/17 11:07:00;;;;;;;0.82;0.47;;;;;;;;;;5820200;28;20202;-74
2023/09/17 11:09:51;;;;;;;1.10;0.80;;;;;;;;;;5819800;28;20482;-74
2023/09/17 11:12:42;;;;;;;1.08;0.70;;;;;;;;;;5819543;28;20594;-74
2023/09/17 11:15:33;;;;;;;0.38;0.38;;;;;;;;;;5820926;28;20489;-75
2023/09/17 11:18:23;;;;;;;0.43;0.28;;;;;;;;;;5820920;28;20430;-74
2023/09/17 11:21:15;;;;;;;0.82;0.25;;;;;;;;;;5820408;28;20054;-73
2023/09/17 11:24:12;;;;;;;0.68;0.40;;;;;;;;;;5820811;28;20058;-75
2023/09/17 11:27:05;;;;;;;0.45;0.38;;;;;;;;;;5819289;28;20058;-74
2023/09/17 11:29:55;;;;;;;2.00;1.00;;;;;;;;;;5821124;28;20378;-75
2023/09/17 11:32:54;;;;;;;0.40;0.40;;;;;;;;;;5820480;28;20042;-74
2023/09/17 11:35:45;;;;;;;1.08;0.68;;;;;;;;;;5819036;28;20046;-74
2023/09/17 11:38:46;;;;;;;0.40;0.20;;;;;;;;;;5819104;28;20417;-75
2023/09/17 11:41:48;;;;;;;0.25;0.25;;;;;;;;;;5819137;28;20678;-74
2023/09/17 11:44:43;;;;;;;0.50;0.38;;;;;;;;;;5820314;28;20042;-72
2023/09/17 11:47:37;;;;;;;0.50;0.30;;;;;;;;;;5818941;28;20430;-73
2023/09/17 11:50:27;;;;;;;1.63;0.28;;;;;;;;;;5818862;28;20514;-72
2023/09/17 11:53:19;;;;;;;0.80;0.50;;;;;;;;;;5819763;28;20043;-73
2023/09/17 11:56:10;;;;;;;14.70;1.00;;;;;;;;;;5819926;28;20129;-74
2023/09/17 11:59:09;;;;;;;0.52;0.30;;;;;;;;;;5820013;28;20390;-75
2023/09/17 12:02:00;;;;;;;0.47;0.15;;;;;;;;;;5820355;28;20058;-74
2023/09/17 12:04:52;;;;;;;1.02;0.43;;;;;;;;;;5820105;28;20043;-73
2023/09/17 12:07:43;;;;;;;0.63;0.55;;;;;;;;;;5818481;28;20121;-73
2023/09/17 12:11:21;;;;;;;0.80;0.60;;;;;;;;;;5819724;28;20050;-74
2023/09/17 12:14:13;;;;;;;1.40;0.70;;;;;;;;;;5805025;28;20350;-76
2023/09/17 12:17:04;;;;;;;0.82;0.52;;;;;;;;;;5818304;28;20132;-75
2023/09/17 12:23:54;;;;;;;1.25;0.80;;;;;;;;;;5818890;28;20050;-73
2023/09/17 12:27:34;;;;;;;0.77;0.70;;;;;;;;;;5818094;28;20042;-75
2023/09/17 12:30:26;;;;;;;0.20;0.20;;;;;;;;;;5818917;28;21211;-74
2023/09/17 12:33:17;;;;;;;0.60;0.30;;;;;;;;;;5818002;28;20513;-75
2023/09/17 12:36:08;;;;;;;0.28;0.20;;;;;;;;;;5834122;28;20114;-74
2023/09/17 12:39:00;;;;;;;0.70;0.60;;;;;;;;;;5819511;28;20053;-75
2023/09/17 12:41:51;;;;;;;0.38;0.38;;;;;;;;;;5819322;28;20385;-76
2023/09/17 12:44:43;;;;;;;3.13;1.10;;;;;;;;;;5818783;28;20096;-74
2023/09/17 12:47:34;;;;;;;0.38;0.38;;;;;;;;;;5817747;28;20524;-76
2023/09/17 12:50:27;;;;;;;0.45;0.40;;;;;;;;;;5818748;28;20058;-74
2023/09/17 12:53:18;;;;;;;0.50;0.30;;;;;;;;;;5818713;28;20061;-75
2023/09/17 12:56:10;;;;;;;0.40;0.40;;;;;;;;;;5818489;28;20057;-76
2023/09/17 12:59:03;;;;;;;1.00;0.73;;;;;;;;;;5817496;28;20043;-76
2023/09/17 13:01:57;;;;;;;0.63;0.50;;;;;;;;;;5819164;28;20053;-75
2023/09/17 13:04:48;;;;;;;3.05;0.95;;;;;;;;;;5818978;28;20058;-75
2023/09/17 13:07:39;;;;;;;2.35;0.85;;;;;;;;;;5818529;28;20046;-74
2023/09/17 13:10:30;;;;;;;1.05;0.68;;;;;;;;;;5818568;28;20046;-75
2023/09/17 13:13:21;;;;;;;0.35;0.35;;;;;;;;;;5809215;28;20061;-75
2023/09/17 13:16:12;;;;;;;0.40;0.40;;;;;;;;;;5817546;28;20038;-75
2023/09/17 13:19:03;;;;;;;0.82;0.35;;;;;;;;;;5809110;28;20116;-74
2023/09/17 13:21:54;;;;;;;0.80;0.38;;;;;;;;;;5818123;28;20401;-74
2023/09/17 13:24:46;;;;;;;1.25;0.90;;;;;;;;;;5817714;28;20053;-74
2023/09/17 13:27:37;;;;;;;0.70;0.50;;;;;;;;;;5816828;28;20042;-76
2023/09/17 13:30:28;;;;;;;0.90;0.63;;;;;;;;;;5824648;28;20470;-74
2023/09/17 13:33:20;;;;;;;2.17;1.27;;;;;;;;;;5809441;28;20046;-77
2023/09/17 13:36:45;;;;;;;1.15;0.75;;;;;;;;;;5817392;28;20128;-76
2023/09/17 13:39:40;;;;;;;2.05;0.77;;;;;;;;;;5811142;28;20069;-75
2023/09/17 13:42:31;;;;;;;0.73;0.63;;;;;;;;;;5794021;28;20069;-75
2023/09/17 13:45:22;;;;;;;0.28;0.20;;;;;;;;;;5813307;28;20046;-75
2023/09/17 13:48:13;;;;;;;1.20;0.68;;;;;;;;;;5817505;28;20454;-75
2023/09/17 13:51:04;;;;;;;0.28;0.28;;;;;;;;;;5817500;28;20070;-75
2023/09/17 13:53:55;;;;;;;0.88;0.45;;;;;;;;;;5817995;28;20054;-74
2023/09/17 13:56:45;;;;;;;0.70;0.40;;;;;;;;;;5817586;28;20042;-75
2023/09/17 13:59:36;;;;;;;0.63;0.47;;;;;;;;;;5817195;28;20073;-75
2023/09/17 14:02:27;;;;;;;0.47;0.47;;;;;;;;;;5817657;28;20458;-75
2023/09/17 14:05:18;;;;;;;0.40;0.20;;;;;;;;;;5817442;28;20042;-75
2023/09/17 14:08:09;;;;;;;0.30;0.30;;;;;;;;;;5814266;28;20564;-75
2023/09/17 14:11:02;;;;;;;2.35;0.93;;;;;;;;;;5806684;28;20162;-74
2023/09/17 14:13:53;;;;;;;1.38;0.45;;;;;;;;;;5824340;28;20047;-75
2023/09/17 14:16:46;;;;;;;0.50;0.47;;;;;;;;;;5793615;28;20485;-75
2023/09/17 14:19:37;;;;;;;5.28;0.98;;;;;;;;;;5794547;28;20039;-76
2023/09/17 14:22:27;;;;;;;0.68;0.40;;;;;;;;;;5817608;28;20394;-76
2023/09/17 14:25:18;;;;;;;8.65;0.95;;;;;;;;;;5797574;28;20489;-75
2023/09/17 14:28:09;;;;;;;0.63;0.43;;;;;;;;;;5794441;28;20126;-75
2023/09/17 14:31:00;;;;;;;2.85;0.93;;;;;;;;;;5804718;28;20050;-76
2023/09/17 14:33:50;;;;;;;0.40;0.40;;;;;;;;;;5824522;28;20043;-74
2023/09/17 14:36:41;;;;;;;0.82;0.65;;;;;;;;;;5805898;28;20459;-75
2023/09/17 14:39:32;;;;;;;9.32;1.30;;;;;;;;;;5816279;28;20070;-76
2023/09/17 14:42:23;;;;;;;0.63;0.55;;;;;;;;;;5819663;28;20051;-75
2023/09/17 14:45:14;;;;;;;1.08;0.57;;;;;;;;;;5819860;28;20046;-75
2023/09/17 14:48:06;;;;;;;0.75;0.73;;;;;;;;;;5818729;28;20046;-75
2023/09/17 14:50:56;;;;;;;1.85;0.75;;;;;;;;;;5796250;28;20088;-77
2023/09/17 14:53:47;;;;;;;0.70;0.50;;;;;;;;;;5816134;28;20039;-76
2023/09/17 14:56:38;;;;;;;1.00;0.80;;;;;;;;;;5813659;28;20070;-75
2023/09/17 14:59:29;;;;;;;1.05;0.85;;;;;;;;;;5818366;28;20046;-77
2023/09/17 15:02:20;;;;;;;0.57;0.43;;;;;;;;;;5815860;28;20058;-76
2023/09/17 15:05:11;;;;;;;0.75;0.60;;;;;;;;;;5810865;28;20181;-76
2023/09/17 15:08:03;;;;;;;0.90;0.60;;;;;;;;;;5811909;28;20046;-76
2023/09/17 15:10:54;;;;;;;4.15;2.55;;;;;;;;;;5811272;28;20043;-75
2023/09/17 15:13:46;;;;;;;0.88;0.80;;;;;;;;;;5811059;28;20046;-75
2023/09/17 15:16:37;;;;;;;0.68;0.50;;;;;;;;;;5811454;28;20046;-76
2023/09/17 15:19:28;;;;;;;1.17;0.68;;;;;;;;;;5813023;28;20042;-75
2023/09/17 15:22:19;;;;;;;3.58;1.13;;;;;;;;;;5818785;28;20062;-75
2023/09/17 15:25:10;;;;;;;0.30;0.30;;;;;;;;;;5817208;28;20050;-75
2023/09/17 15:28:00;;;;;;;0.45;0.43;;;;;;;;;;5819338;28;20051;-77
2023/09/17 15:30:51;;;;;;;0.75;0.40;;;;;;;;;;5820792;28;20046;-75
2023/09/17 15:33:42;;;;;;;0.40;0.38;;;;;;;;;;5819138;28;20046;-76
2023/09/17 15:36:37;;;;;;;1.20;0.63;;;;;;;;;;5820332;28;20433;-75
2023/09/17 15:39:27;;;;;;;10.15;1.40;;;;;;;;;;5819095;28;20069;-76
2023/09/17 15:42:18;;;;;;;0.70;0.40;;;;;;;;;;5819029;28;20057;-74
2023/09/17 15:45:09;;;;;;;0.55;0.55;;;;;;;;;;5810427;28;20050;-76
2023/09/17 15:48:00;;;;;;;0.75;0.70;;;;;;;;;;5818610;28;20043;-75
2023/09/17 15:50:51;;;;;;;2.40;1.25;;;;;;;;;;5809513;28;20560;-76
2023/09/17 15:53:42;;;;;;;3.78;1.55;;;;;;;;;;5816293;28;20086;-77
2023/09/17 15:56:33;;;;;;;2.92;1.67;;;;;;;;;;5818511;28;20054;-74
2023/09/17 15:59:23;;;;;;;2.00;1.05;;;;;;;;;;5818974;28;20042;-75
2023/09/17 16:02:14;;;;;;;1.17;0.75;;;;;;;;;;5819536;28;20056;-77
2023/09/17 16:05:06;;;;;;;0.55;0.55;;;;;;;;;;5819433;28;20046;-76
2023/09/17 16:07:56;;;;;;;2.33;1.10;;;;;;;;;;5813302;28;20169;-75
2023/09/17 16:10:48;;;;;;;1.63;0.98;;;;;;;;;;5809373;28;20049;-74
2023/09/17 16:13:39;;;;;;;1.45;0.95;;;;;;;;;;5809426;28;20069;-74
2023/09/17 16:16:30;;;;;;;1.35;0.95;;;;;;;;;;5810070;28;20082;-76
2023/09/17 16:19:28;;;;;;;1.00;0.75;;;;;;;;;;5808568;28;20417;-76
2023/09/17 16:22:18;;;;;;;30.55;1.35;;;;;;;;;;5809189;28;20057;-74
2023/09/17 16:25:10;;;;;;;5.22;1.70;;;;;;;;;;5808849;28;20051;-76
2023/09/17 16:28:01;;;;;;;0.90;0.80;;;;;;;;;;5811548;28;20473;-76
2023/09/17 16:30:52;;;;;;;3.20;1.20;;;;;;;;;;5805939;28;20043;-76
2023/09/17 16:33:43;;;;;;;3.25;1.83;;;;;;;;;;5809761;28;20046;-76
2023/09/17 16:36:36;;;;;;;1.30;1.00;;;;;;;;;;5817604;28;20043;-74
2023/09/17 16:39:26;;;;;;;1.05;0.77;;;;;;;;;;5818021;28;20042;-74
2023/09/17 16:42:17;;;;;;;1.50;0.85;;;;;;;;;;5819221;28;20386;-74
2023/09/17 16:45:08;;;;;;;2.10;0.95;;;;;;;;;;5817921;28;20047;-74
2023/09/17 16:47:59;;;;;;;2.65;1.33;;;;;;;;;;5811473;28;20061;-74
2023/09/17 16:50:50;;;;;;;4.13;1.95;;;;;;;;;;5817665;28;20042;-75
2023/09/17 16:53:41;;;;;;;1.38;0.90;;;;;;;;;;5817089;28;20050;-75
2023/09/17 16:56:32;;;;;;;2.38;1.85;;;;;;;;;;5817405;28;20474;-75
2023/09/17 16:59:23;;;;;;;1.38;1.17;;;;;;;;;;5815995;28;20054;-75
2023/09/17 17:02:13;;;;;;;1.45;0.98;;;;;;;;;;5818263;28;20133;-75
2023/09/17 17:05:07;;;;;;;2.17;1.10;;;;;;;;;;5817213;28;20051;-75
2023/09/17 17:07:57;;;;;;;3.88;2.00;;;;;;;;;;5815102;28;20092;-73
2023/09/17 17:10:49;;;;;;;3.03;1.48;;;;;;;;;;5810158;28;20049;-75
2023/09/17 17:13:39;;;;;;;1.83;1.33;;;;;;;;;;5813290;28;20046;-75
2023/09/17 17:16:31;;;;;;;2.05;1.13;;;;;;;;;;5808989;28;20054;-75